Alvin, Illinois
Current Conditions -  °F | °C
As of 3:15 PM on Thursday 18 Dec 2014 (Local Time) from KDNV Reporting Station
Overcast Overcast  
Wind Chill: 28°   Ceiling: 1800
Heat Index: 28°   Visibility: 10mi
Dew Point: 22°   Wind: 3mph
Humidity: 80%   Direction: 310°NW
Pressure: 30.22"   Gusts: NA
Location:  40.31°N, 87.61°W
Report Text: KDNV 182115Z AUTO 31003KT 10SM BKN018 OVC120 M02/M05 A3022 RMK AO2 T10251055
Loading
Personal Weather Stations






























Interactive Weather Map New forecast layout! Learn more

10-Day Weather Forecast

Advertisements
Track Severe Weather on mobile